Terminal Aerodrome Forecast
Issued by NWS

Home | Current Version | Previous Version | Text Only | Print | Product List | Glossary On
Versions: 1 2 3 4 5 6 7 8 9 10 11 12 13 14 15 16 17 18 19 20 21 22 23 24 25 26 27 28 29 30 31 32
000
FTUS45 KSLC 010522
TAFBCE
TAF
KBCE 010522Z 0106/0206 28005KT P6SM SCT060 BKN090
     FM011200 32012G18KT P6SM VCSH SCT040 BKN060
     FM011900 32012G18KT P6SM SCT060
     FM020300 32010KT P6SM SCT060=

USA.gov is the U.S. government's official web portal to all federal, state and local government web resources and services.